Terminal Aerodrome Forecast
Issued by NWS

Current Version | Previous Version | Text Only | Print | Product List | Glossary On
Versions: 1 2 3 4 5 6 7 8 9 10 11 12 13 14 15 16 17 18 19 20 21 22 23 24 25 26 27 28 29 30 31
000
FTUS41 KBOX 010808 AAA
TAFFMH
TAF AMD
KFMH 010808Z 0108/0206 00000KT 2SM BR SKC
     FM011200 23006KT P6SM BKN070
     FM011900 22011KT P6SM VCSH BKN070
     FM012300 24009KT P6SM BKN070
     FM020500 28006KT P6SM BKN070=

USA.gov is the U.S. government's official web portal to all federal, state and local government web resources and services.